sensor_id;sensor_type;location;lat;lon;timestamp;P1;durP1;ratioP1;P2;durP2;ratioP2
74892;SDS011;63446;56.272;43.922;2022-10-17T00:01:58;9.50;;;3.70;;
74892;SDS011;63446;56.272;43.922;2022-10-17T00:04:24;9.25;;;3.10;;
74892;SDS011;63446;56.272;43.922;2022-10-17T00:06:49;8.00;;;3.47;;
74892;SDS011;63446;56.272;43.922;2022-10-17T00:09:16;11.18;;;3.80;;
74892;SDS011;63446;56.272;43.922;2022-10-17T00:11:41;9.67;;;3.53;;
74892;SDS011;63446;56.272;43.922;2022-10-17T00:14:08;10.60;;;3.30;;
74892;SDS011;63446;56.272;43.922;2022-10-17T00:16:34;9.63;;;3.40;;
74892;SDS011;63446;56.272;43.922;2022-10-17T00:19:04;7.53;;;3.33;;
74892;SDS011;63446;56.272;43.922;2022-10-17T00:21:31;9.65;;;3.08;;
74892;SDS011;63446;56.272;43.922;2022-10-17T00:23:59;8.80;;;3.22;;
74892;SDS011;63446;56.272;43.922;2022-10-17T00:26:25;8.98;;;3.65;;
74892;SDS011;63446;56.272;43.922;2022-10-17T00:28:53;12.50;;;4.00;;
74892;SDS011;63446;56.272;43.922;2022-10-17T00:31:19;9.73;;;3.60;;
74892;SDS011;63446;56.272;43.922;2022-10-17T00:33:49;12.82;;;3.55;;
74892;SDS011;63446;56.272;43.922;2022-10-17T00:36:16;8.75;;;3.05;;
74892;SDS011;63446;56.272;43.922;2022-10-17T00:38:45;6.80;;;3.33;;
74892;SDS011;63446;56.272;43.922;2022-10-17T00:41:15;9.63;;;3.70;;
74892;SDS011;63446;56.272;43.922;2022-10-17T00:43:50;9.13;;;3.05;;
74892;SDS011;63446;56.272;43.922;2022-10-17T00:46:28;8.32;;;3.22;;
74892;SDS011;63446;56.272;43.922;2022-10-17T00:48:56;9.05;;;3.03;;
74892;SDS011;63446;56.272;43.922;2022-10-17T00:51:26;8.05;;;2.80;;
74892;SDS011;63446;56.272;43.922;2022-10-17T00:54:03;10.67;;;3.27;;
74892;SDS011;63446;56.272;43.922;2022-10-17T00:56:30;9.15;;;3.20;;
74892;SDS011;63446;56.272;43.922;2022-10-17T00:58:57;8.50;;;2.90;;
74892;SDS011;63446;56.272;43.922;2022-10-17T01:01:23;7.57;;;2.88;;
74892;SDS011;63446;56.272;43.922;2022-10-17T01:03:50;7.45;;;2.88;;
74892;SDS011;63446;56.272;43.922;2022-10-17T01:06:17;9.23;;;2.90;;
74892;SDS011;63446;56.272;43.922;2022-10-17T01:08:43;9.30;;;2.70;;
74892;SDS011;63446;56.272;43.922;2022-10-17T01:11:17;9.48;;;2.70;;
74892;SDS011;63446;56.272;43.922;2022-10-17T01:16:50;9.25;;;3.70;;
74892;SDS011;63446;56.272;43.922;2022-10-17T01:22:58;8.48;;;3.33;;
74892;SDS011;63446;56.272;43.922;2022-10-17T01:31:13;8.48;;;3.25;;
74892;SDS011;63446;56.272;43.922;2022-10-17T01:34:04;8.73;;;2.90;;
74892;SDS011;63446;56.272;43.922;2022-10-17T01:36:34;7.10;;;3.30;;
74892;SDS011;63446;56.272;43.922;2022-10-17T01:39:15;6.45;;;2.90;;
74892;SDS011;63446;56.272;43.922;2022-10-17T01:47:04;9.27;;;3.20;;
74892;SDS011;63446;56.272;43.922;2022-10-17T01:49:33;9.70;;;2.85;;
74892;SDS011;63446;56.272;43.922;2022-10-17T01:52:09;6.45;;;2.95;;
74892;SDS011;63446;56.272;43.922;2022-10-17T01:54:41;8.05;;;2.90;;
74892;SDS011;63446;56.272;43.922;2022-10-17T01:57:13;7.65;;;3.05;;
74892;SDS011;63446;56.272;43.922;2022-10-17T01:59:47;8.13;;;2.70;;
74892;SDS011;63446;56.272;43.922;2022-10-17T02:02:20;7.30;;;2.63;;
74892;SDS011;63446;56.272;43.922;2022-10-17T02:04:47;7.18;;;3.25;;
74892;SDS011;63446;56.272;43.922;2022-10-17T02:07:16;9.52;;;2.88;;
74892;SDS011;63446;56.272;43.922;2022-10-17T02:09:42;8.47;;;2.87;;
74892;SDS011;63446;56.272;43.922;2022-10-17T02:20:49;6.07;;;2.90;;
74892;SDS011;63446;56.272;43.922;2022-10-17T02:23:40;9.88;;;4.35;;
74892;SDS011;63446;56.272;43.922;2022-10-17T02:26:28;14.77;;;5.65;;
74892;SDS011;63446;56.272;43.922;2022-10-17T02:29:12;19.50;;;8.13;;
74892;SDS011;63446;56.272;43.922;2022-10-17T02:31:55;25.75;;;9.38;;
74892;SDS011;63446;56.272;43.922;2022-10-17T02:34:30;22.43;;;10.90;;
74892;SDS011;63446;56.272;43.922;2022-10-17T02:37:01;27.42;;;10.48;;
74892;SDS011;63446;56.272;43.922;2022-10-17T02:39:31;24.88;;;10.50;;
74892;SDS011;63446;56.272;43.922;2022-10-17T02:42:00;22.08;;;9.05;;
74892;SDS011;63446;56.272;43.922;2022-10-17T02:44:30;14.68;;;6.00;;
74892;SDS011;63446;56.272;43.922;2022-10-17T02:47:08;11.57;;;4.60;;
74892;SDS011;63446;56.272;43.922;2022-10-17T02:49:40;14.82;;;4.35;;
74892;SDS011;63446;56.272;43.922;2022-10-17T03:00:00;8.43;;;3.80;;
74892;SDS011;63446;56.272;43.922;2022-10-17T03:02:37;13.25;;;3.50;;
74892;SDS011;63446;56.272;43.922;2022-10-17T03:05:09;15.10;;;5.20;;
74892;SDS011;63446;56.272;43.922;2022-10-17T03:07:37;15.70;;;5.55;;
74892;SDS011;63446;56.272;43.922;2022-10-17T03:10:03;16.88;;;6.00;;
74892;SDS011;63446;56.272;43.922;2022-10-17T03:12:29;13.77;;;3.83;;
74892;SDS011;63446;56.272;43.922;2022-10-17T03:14:57;9.50;;;3.63;;
74892;SDS011;63446;56.272;43.922;2022-10-17T03:17:23;8.13;;;3.67;;
74892;SDS011;63446;56.272;43.922;2022-10-17T03:19:49;7.77;;;3.27;;
74892;SDS011;63446;56.272;43.922;2022-10-17T03:22:15;10.85;;;3.40;;
74892;SDS011;63446;56.272;43.922;2022-10-17T03:24:44;12.85;;;3.45;;
74892;SDS011;63446;56.272;43.922;2022-10-17T03:27:10;8.17;;;3.37;;
74892;SDS011;63446;56.272;43.922;2022-10-17T03:29:36;7.63;;;3.10;;
74892;SDS011;63446;56.272;43.922;2022-10-17T03:32:03;15.25;;;3.53;;
74892;SDS011;63446;56.272;43.922;2022-10-17T03:34:30;10.90;;;4.15;;
74892;SDS011;63446;56.272;43.922;2022-10-17T03:36:56;11.30;;;4.33;;
74892;SDS011;63446;56.272;43.922;2022-10-17T03:39:25;15.18;;;4.88;;
74892;SDS011;63446;56.272;43.922;2022-10-17T03:41:52;10.00;;;4.38;;
74892;SDS011;63446;56.272;43.922;2022-10-17T03:44:19;13.07;;;4.70;;
74892;SDS011;63446;56.272;43.922;2022-10-17T03:46:44;14.13;;;5.03;;
74892;SDS011;63446;56.272;43.922;2022-10-17T03:49:11;11.25;;;4.57;;
74892;SDS011;63446;56.272;43.922;2022-10-17T03:51:38;13.85;;;4.38;;
74892;SDS011;63446;56.272;43.922;2022-10-17T03:54:08;13.13;;;4.88;;
74892;SDS011;63446;56.272;43.922;2022-10-17T03:56:34;13.57;;;4.88;;
74892;SDS011;63446;56.272;43.922;2022-10-17T03:59:03;11.70;;;5.03;;
74892;SDS011;63446;56.272;43.922;2022-10-17T04:01:32;13.77;;;4.50;;
74892;SDS011;63446;56.272;43.922;2022-10-17T04:03:58;15.77;;;5.50;;
74892;SDS011;63446;56.272;43.922;2022-10-17T04:06:28;12.55;;;4.93;;
74892;SDS011;63446;56.272;43.922;2022-10-17T04:08:55;18.40;;;5.47;;
74892;SDS011;63446;56.272;43.922;2022-10-17T04:11:27;10.70;;;4.60;;
74892;SDS011;63446;56.272;43.922;2022-10-17T04:13:57;11.80;;;4.75;;
74892;SDS011;63446;56.272;43.922;2022-10-17T04:16:27;14.02;;;5.97;;
74892;SDS011;63446;56.272;43.922;2022-10-17T04:19:03;12.20;;;5.68;;
74892;SDS011;63446;56.272;43.922;2022-10-17T04:21:34;11.32;;;5.53;;
74892;SDS011;63446;56.272;43.922;2022-10-17T04:24:04;19.15;;;7.20;;
74892;SDS011;63446;56.272;43.922;2022-10-17T04:26:53;23.88;;;9.60;;
74892;SDS011;63446;56.272;43.922;2022-10-17T04:29:23;26.30;;;9.48;;
74892;SDS011;63446;56.272;43.922;2022-10-17T04:31:52;26.63;;;9.25;;
74892;SDS011;63446;56.272;43.922;2022-10-17T04:34:24;25.38;;;9.70;;
74892;SDS011;63446;56.272;43.922;2022-10-17T04:36:50;15.73;;;7.57;;
74892;SDS011;63446;56.272;43.922;2022-10-17T04:39:16;13.35;;;6.05;;
74892;SDS011;63446;56.272;43.922;2022-10-17T04:41:43;15.82;;;6.57;;
74892;SDS011;63446;56.272;43.922;2022-10-17T04:44:09;18.65;;;5.70;;
74892;SDS011;63446;56.272;43.922;2022-10-17T04:46:39;13.63;;;4.33;;
74892;SDS011;63446;56.272;43.922;2022-10-17T04:49:05;12.10;;;4.43;;
74892;SDS011;63446;56.272;43.922;2022-10-17T04:51:31;12.95;;;5.00;;
74892;SDS011;63446;56.272;43.922;2022-10-17T04:54:23;14.73;;;5.00;;
74892;SDS011;63446;56.272;43.922;2022-10-17T04:57:07;12.43;;;4.90;;
74892;SDS011;63446;56.272;43.922;2022-10-17T04:59:33;15.73;;;6.57;;
74892;SDS011;63446;56.272;43.922;2022-10-17T05:02:15;11.98;;;5.30;;
74892;SDS011;63446;56.272;43.922;2022-10-17T05:04:41;15.35;;;5.35;;
74892;SDS011;63446;56.272;43.922;2022-10-17T05:07:08;16.08;;;6.07;;
74892;SDS011;63446;56.272;43.922;2022-10-17T05:10:00;16.13;;;5.95;;
74892;SDS011;63446;56.272;43.922;2022-10-17T05:12:28;14.87;;;5.10;;
74892;SDS011;63446;56.272;43.922;2022-10-17T05:14:54;15.48;;;5.82;;
74892;SDS011;63446;56.272;43.922;2022-10-17T05:17:22;18.33;;;6.07;;
74892;SDS011;63446;56.272;43.922;2022-10-17T05:19:48;16.95;;;6.18;;
74892;SDS011;63446;56.272;43.922;2022-10-17T05:22:16;18.48;;;6.78;;
74892;SDS011;63446;56.272;43.922;2022-10-17T05:24:42;21.02;;;7.38;;
74892;SDS011;63446;56.272;43.922;2022-10-17T05:27:08;24.33;;;7.90;;
74892;SDS011;63446;56.272;43.922;2022-10-17T05:29:34;20.47;;;7.63;;
74892;SDS011;63446;56.272;43.922;2022-10-17T05:32:11;16.45;;;8.02;;
74892;SDS011;63446;56.272;43.922;2022-10-17T05:34:38;22.55;;;8.10;;
74892;SDS011;63446;56.272;43.922;2022-10-17T05:37:04;22.52;;;8.30;;
74892;SDS011;63446;56.272;43.922;2022-10-17T05:39:31;20.35;;;7.28;;
74892;SDS011;63446;56.272;43.922;2022-10-17T05:41:57;24.50;;;9.70;;
74892;SDS011;63446;56.272;43.922;2022-10-17T05:44:23;29.25;;;10.30;;
74892;SDS011;63446;56.272;43.922;2022-10-17T05:46:53;37.67;;;13.23;;
74892;SDS011;63446;56.272;43.922;2022-10-17T05:49:19;33.70;;;12.93;;
74892;SDS011;63446;56.272;43.922;2022-10-17T05:51:46;40.55;;;13.65;;
74892;SDS011;63446;56.272;43.922;2022-10-17T05:54:12;29.58;;;11.02;;
74892;SDS011;63446;56.272;43.922;2022-10-17T05:56:38;29.75;;;11.25;;
74892;SDS011;63446;56.272;43.922;2022-10-17T05:59:04;37.90;;;14.52;;
74892;SDS011;63446;56.272;43.922;2022-10-17T06:01:47;31.47;;;13.27;;
74892;SDS011;63446;56.272;43.922;2022-10-17T06:04:13;30.13;;;12.82;;
74892;SDS011;63446;56.272;43.922;2022-10-17T06:06:39;25.77;;;12.48;;
74892;SDS011;63446;56.272;43.922;2022-10-17T06:09:05;21.55;;;10.10;;
74892;SDS011;63446;56.272;43.922;2022-10-17T06:11:35;16.65;;;6.80;;
74892;SDS011;63446;56.272;43.922;2022-10-17T06:14:01;20.13;;;7.80;;
74892;SDS011;63446;56.272;43.922;2022-10-17T06:16:28;22.77;;;9.55;;
74892;SDS011;63446;56.272;43.922;2022-10-17T06:18:54;26.35;;;9.02;;
74892;SDS011;63446;56.272;43.922;2022-10-17T06:21:21;25.77;;;10.13;;
74892;SDS011;63446;56.272;43.922;2022-10-17T06:23:51;23.13;;;7.45;;
74892;SDS011;63446;56.272;43.922;2022-10-17T06:26:26;17.92;;;6.55;;
74892;SDS011;63446;56.272;43.922;2022-10-17T06:28:53;17.65;;;6.60;;
74892;SDS011;63446;56.272;43.922;2022-10-17T06:31:19;17.60;;;6.38;;
74892;SDS011;63446;56.272;43.922;2022-10-17T06:33:46;18.88;;;5.90;;
74892;SDS011;63446;56.272;43.922;2022-10-17T06:36:13;16.08;;;5.97;;
74892;SDS011;63446;56.272;43.922;2022-10-17T06:38:39;15.70;;;5.82;;
74892;SDS011;63446;56.272;43.922;2022-10-17T06:41:13;14.80;;;6.60;;
74892;SDS011;63446;56.272;43.922;2022-10-17T06:43:40;22.08;;;7.60;;
74892;SDS011;63446;56.272;43.922;2022-10-17T06:46:31;21.63;;;9.63;;
74892;SDS011;63446;56.272;43.922;2022-10-17T06:49:00;26.05;;;10.18;;
74892;SDS011;63446;56.272;43.922;2022-10-17T06:51:44;27.30;;;11.65;;
74892;SDS011;63446;56.272;43.922;2022-10-17T06:54:13;28.88;;;12.38;;
74892;SDS011;63446;56.272;43.922;2022-10-17T06:56:47;22.85;;;9.68;;
74892;SDS011;63446;56.272;43.922;2022-10-17T06:59:27;16.52;;;7.75;;
74892;SDS011;63446;56.272;43.922;2022-10-17T07:02:02;21.73;;;7.03;;
74892;SDS011;63446;56.272;43.922;2022-10-17T07:04:28;18.90;;;6.70;;
74892;SDS011;63446;56.272;43.922;2022-10-17T07:06:54;18.30;;;7.05;;
74892;SDS011;63446;56.272;43.922;2022-10-17T07:09:22;43.08;;;9.10;;
74892;SDS011;63446;56.272;43.922;2022-10-17T07:11:49;28.60;;;9.73;;
74892;SDS011;63446;56.272;43.922;2022-10-17T07:14:18;23.83;;;7.30;;
74892;SDS011;63446;56.272;43.922;2022-10-17T07:16:45;18.55;;;6.75;;
74892;SDS011;63446;56.272;43.922;2022-10-17T07:19:16;18.45;;;7.10;;
74892;SDS011;63446;56.272;43.922;2022-10-17T07:21:42;19.40;;;7.97;;
74892;SDS011;63446;56.272;43.922;2022-10-17T07:24:10;18.20;;;6.88;;
74892;SDS011;63446;56.272;43.922;2022-10-17T07:26:41;16.50;;;7.43;;
74892;SDS011;63446;56.272;43.922;2022-10-17T07:29:06;17.33;;;7.50;;
74892;SDS011;63446;56.272;43.922;2022-10-17T07:31:36;22.02;;;7.30;;
74892;SDS011;63446;56.272;43.922;2022-10-17T07:34:02;17.92;;;6.45;;
74892;SDS011;63446;56.272;43.922;2022-10-17T07:36:30;12.63;;;6.15;;
74892;SDS011;63446;56.272;43.922;2022-10-17T07:38:57;14.30;;;4.60;;
74892;SDS011;63446;56.272;43.922;2022-10-17T07:41:24;17.08;;;4.95;;
74892;SDS011;63446;56.272;43.922;2022-10-17T07:43:50;15.18;;;4.43;;
74892;SDS011;63446;56.272;43.922;2022-10-17T07:46:22;14.52;;;4.90;;
74892;SDS011;63446;56.272;43.922;2022-10-17T07:48:48;13.63;;;4.43;;
74892;SDS011;63446;56.272;43.922;2022-10-17T07:51:14;15.40;;;5.28;;
74892;SDS011;63446;56.272;43.922;2022-10-17T07:53:41;11.23;;;4.95;;
74892;SDS011;63446;56.272;43.922;2022-10-17T07:56:07;12.80;;;5.10;;
74892;SDS011;63446;56.272;43.922;2022-10-17T07:58:36;14.05;;;5.07;;
74892;SDS011;63446;56.272;43.922;2022-10-17T08:01:04;32.77;;;5.00;;
74892;SDS011;63446;56.272;43.922;2022-10-17T08:03:31;13.45;;;4.82;;
74892;SDS011;63446;56.272;43.922;2022-10-17T08:05:58;17.20;;;5.95;;
74892;SDS011;63446;56.272;43.922;2022-10-17T08:08:25;18.08;;;5.72;;
74892;SDS011;63446;56.272;43.922;2022-10-17T08:10:51;16.70;;;5.30;;
74892;SDS011;63446;56.272;43.922;2022-10-17T08:13:21;11.53;;;5.37;;
74892;SDS011;63446;56.272;43.922;2022-10-17T08:15:48;12.65;;;5.03;;
74892;SDS011;63446;56.272;43.922;2022-10-17T08:18:14;13.88;;;5.50;;
74892;SDS011;63446;56.272;43.922;2022-10-17T08:20:40;23.10;;;6.53;;
74892;SDS011;63446;56.272;43.922;2022-10-17T08:23:06;12.25;;;5.30;;
74892;SDS011;63446;56.272;43.922;2022-10-17T08:25:32;13.90;;;4.53;;
74892;SDS011;63446;56.272;43.922;2022-10-17T08:27:58;21.47;;;7.77;;
74892;SDS011;63446;56.272;43.922;2022-10-17T08:30:24;18.02;;;7.47;;
74892;SDS011;63446;56.272;43.922;2022-10-17T08:32:49;28.58;;;11.43;;
74892;SDS011;63446;56.272;43.922;2022-10-17T08:35:16;23.98;;;9.45;;
74892;SDS011;63446;56.272;43.922;2022-10-17T08:37:42;17.02;;;7.35;;
74892;SDS011;63446;56.272;43.922;2022-10-17T08:40:16;29.00;;;10.23;;
74892;SDS011;63446;56.272;43.922;2022-10-17T08:45:39;15.27;;;5.70;;
74892;SDS011;63446;56.272;43.922;2022-10-17T08:48:28;14.20;;;6.70;;
74892;SDS011;63446;56.272;43.922;2022-10-17T08:50:58;13.55;;;4.45;;
74892;SDS011;63446;56.272;43.922;2022-10-17T08:53:29;15.93;;;7.10;;
74892;SDS011;63446;56.272;43.922;2022-10-17T08:56:19;12.40;;;4.78;;
74892;SDS011;63446;56.272;43.922;2022-10-17T08:58:48;21.70;;;8.13;;
74892;SDS011;63446;56.272;43.922;2022-10-17T09:04:16;17.08;;;7.00;;
74892;SDS011;63446;56.272;43.922;2022-10-17T09:06:53;16.63;;;6.40;;
74892;SDS011;63446;56.272;43.922;2022-10-17T09:12:15;25.27;;;9.55;;
74892;SDS011;63446;56.272;43.922;2022-10-17T09:20:27;19.95;;;8.40;;
74892;SDS011;63446;56.272;43.922;2022-10-17T09:25:53;19.92;;;7.10;;
74892;SDS011;63446;56.272;43.922;2022-10-17T09:31:29;20.73;;;7.60;;
74892;SDS011;63446;56.272;43.922;2022-10-17T09:33:50;19.88;;;7.32;;
74892;SDS011;63446;56.272;43.922;2022-10-17T09:36:22;18.92;;;7.68;;
74892;SDS011;63446;56.272;43.922;2022-10-17T09:38:52;18.45;;;8.82;;
74892;SDS011;63446;56.272;43.922;2022-10-17T09:41:20;21.45;;;10.38;;
74892;SDS011;63446;56.272;43.922;2022-10-17T09:43:51;19.08;;;9.10;;
74892;SDS011;63446;56.272;43.922;2022-10-17T09:46:25;18.95;;;10.10;;
74892;SDS011;63446;56.272;43.922;2022-10-17T09:48:59;27.50;;;10.38;;
74892;SDS011;63446;56.272;43.922;2022-10-17T09:51:30;25.65;;;6.90;;
74892;SDS011;63446;56.272;43.922;2022-10-17T09:53:58;20.95;;;4.93;;
74892;SDS011;63446;56.272;43.922;2022-10-17T09:56:28;17.95;;;5.40;;
74892;SDS011;63446;56.272;43.922;2022-10-17T09:58:55;12.10;;;4.65;;
74892;SDS011;63446;56.272;43.922;2022-10-17T10:01:28;15.32;;;5.40;;
74892;SDS011;63446;56.272;43.922;2022-10-17T10:06:39;23.50;;;8.77;;
74892;SDS011;63446;56.272;43.922;2022-10-17T10:09:16;18.50;;;6.20;;
74892;SDS011;63446;56.272;43.922;2022-10-17T10:11:47;10.38;;;4.53;;
74892;SDS011;63446;56.272;43.922;2022-10-17T10:14:19;17.27;;;5.50;;
74892;SDS011;63446;56.272;43.922;2022-10-17T10:16:46;15.13;;;5.70;;
74892;SDS011;63446;56.272;43.922;2022-10-17T10:22:22;17.17;;;5.30;;
74892;SDS011;63446;56.272;43.922;2022-10-17T10:25:05;19.63;;;6.88;;
74892;SDS011;63446;56.272;43.922;2022-10-17T10:27:38;19.08;;;7.68;;
74892;SDS011;63446;56.272;43.922;2022-10-17T10:30:05;15.50;;;5.55;;
74892;SDS011;63446;56.272;43.922;2022-10-17T10:32:32;10.33;;;4.53;;
74892;SDS011;63446;56.272;43.922;2022-10-17T10:35:02;12.40;;;4.78;;
74892;SDS011;63446;56.272;43.922;2022-10-17T10:37:39;11.77;;;5.55;;
74892;SDS011;63446;56.272;43.922;2022-10-17T10:40:18;15.43;;;6.43;;
74892;SDS011;63446;56.272;43.922;2022-10-17T10:42:49;18.88;;;6.13;;
74892;SDS011;63446;56.272;43.922;2022-10-17T10:45:21;19.10;;;7.13;;
74892;SDS011;63446;56.272;43.922;2022-10-17T10:50:21;22.30;;;9.93;;
74892;SDS011;63446;56.272;43.922;2022-10-17T10:53:11;16.17;;;5.60;;
74892;SDS011;63446;56.272;43.922;2022-10-17T10:55:43;14.20;;;5.97;;
74892;SDS011;63446;56.272;43.922;2022-10-17T10:58:19;20.60;;;5.63;;
74892;SDS011;63446;56.272;43.922;2022-10-17T11:00:52;19.58;;;3.78;;
74892;SDS011;63446;56.272;43.922;2022-10-17T11:03:35;14.00;;;4.07;;
74892;SDS011;63446;56.272;43.922;2022-10-17T11:06:12;15.30;;;4.35;;
74892;SDS011;63446;56.272;43.922;2022-10-17T11:11:37;15.57;;;5.77;;
74892;SDS011;63446;56.272;43.922;2022-10-17T11:14:16;22.15;;;6.57;;
74892;SDS011;63446;56.272;43.922;2022-10-17T11:19:15;28.17;;;9.03;;
74892;SDS011;63446;56.272;43.922;2022-10-17T11:27:21;19.83;;;5.45;;
74892;SDS011;63446;56.272;43.922;2022-10-17T11:29:48;15.70;;;5.03;;
74892;SDS011;63446;56.272;43.922;2022-10-17T11:32:20;8.83;;;4.60;;
74892;SDS011;63446;56.272;43.922;2022-10-17T11:34:52;15.13;;;4.50;;
74892;SDS011;63446;56.272;43.922;2022-10-17T11:37:29;9.90;;;4.05;;
74892;SDS011;63446;56.272;43.922;2022-10-17T11:40:01;10.43;;;4.20;;
74892;SDS011;63446;56.272;43.922;2022-10-17T11:42:36;16.73;;;4.70;;
74892;SDS011;63446;56.272;43.922;2022-10-17T11:45:08;12.50;;;4.20;;
74892;SDS011;63446;56.272;43.922;2022-10-17T11:47:42;9.10;;;3.97;;
74892;SDS011;63446;56.272;43.922;2022-10-17T11:50:25;14.48;;;4.90;;
74892;SDS011;63446;56.272;43.922;2022-10-17T11:52:59;19.38;;;6.07;;
74892;SDS011;63446;56.272;43.922;2022-10-17T11:55:30;21.80;;;7.15;;
74892;SDS011;63446;56.272;43.922;2022-10-17T12:03:24;13.00;;;4.30;;
74892;SDS011;63446;56.272;43.922;2022-10-17T12:06:03;8.52;;;3.50;;
74892;SDS011;63446;56.272;43.922;2022-10-17T12:11:23;14.40;;;2.87;;
74892;SDS011;63446;56.272;43.922;2022-10-17T12:16:59;10.18;;;2.60;;
74892;SDS011;63446;56.272;43.922;2022-10-17T12:19:29;8.88;;;3.20;;
74892;SDS011;63446;56.272;43.922;2022-10-17T12:22:17;9.27;;;3.00;;
74892;SDS011;63446;56.272;43.922;2022-10-17T12:24:52;10.10;;;3.23;;
74892;SDS011;63446;56.272;43.922;2022-10-17T12:30:06;9.93;;;3.10;;
74892;SDS011;63446;56.272;43.922;2022-10-17T12:35:20;12.35;;;4.85;;
74892;SDS011;63446;56.272;43.922;2022-10-17T12:43:01;28.52;;;10.00;;
74892;SDS011;63446;56.272;43.922;2022-10-17T12:45:54;28.40;;;11.02;;
74892;SDS011;63446;56.272;43.922;2022-10-17T12:56:18;21.75;;;9.38;;
74892;SDS011;63446;56.272;43.922;2022-10-17T12:58:47;21.08;;;8.60;;
74892;SDS011;63446;56.272;43.922;2022-10-17T13:01:28;22.92;;;9.68;;
74892;SDS011;63446;56.272;43.922;2022-10-17T13:03:58;25.98;;;10.10;;
74892;SDS011;63446;56.272;43.922;2022-10-17T13:06:30;28.10;;;10.85;;
74892;SDS011;63446;56.272;43.922;2022-10-17T13:09:22;24.05;;;11.10;;
74892;SDS011;63446;56.272;43.922;2022-10-17T13:11:57;25.95;;;12.10;;
74892;SDS011;63446;56.272;43.922;2022-10-17T13:14:25;33.63;;;13.60;;
74892;SDS011;63446;56.272;43.922;2022-10-17T13:16:54;36.40;;;15.15;;
74892;SDS011;63446;56.272;43.922;2022-10-17T13:19:23;17.42;;;9.05;;
74892;SDS011;63446;56.272;43.922;2022-10-17T13:21:52;15.23;;;6.13;;
74892;SDS011;63446;56.272;43.922;2022-10-17T13:24:35;14.43;;;4.72;;
74892;SDS011;63446;56.272;43.922;2022-10-17T13:27:03;15.05;;;5.40;;
74892;SDS011;63446;56.272;43.922;2022-10-17T13:29:30;22.95;;;9.70;;
74892;SDS011;63446;56.272;43.922;2022-10-17T13:31:58;31.40;;;12.15;;
74892;SDS011;63446;56.272;43.922;2022-10-17T13:34:26;23.58;;;9.27;;
74892;SDS011;63446;56.272;43.922;2022-10-17T13:36:53;15.73;;;6.63;;
74892;SDS011;63446;56.272;43.922;2022-10-17T13:39:25;12.48;;;5.07;;
74892;SDS011;63446;56.272;43.922;2022-10-17T13:41:54;16.70;;;4.47;;
74892;SDS011;63446;56.272;43.922;2022-10-17T13:44:23;12.85;;;4.03;;
74892;SDS011;63446;56.272;43.922;2022-10-17T13:46:51;10.70;;;4.15;;
74892;SDS011;63446;56.272;43.922;2022-10-17T13:49:20;20.77;;;4.35;;
74892;SDS011;63446;56.272;43.922;2022-10-17T13:51:51;10.50;;;4.07;;
74892;SDS011;63446;56.272;43.922;2022-10-17T13:57:21;8.38;;;4.00;;
74892;SDS011;63446;56.272;43.922;2022-10-17T13:59:54;10.63;;;4.80;;
74892;SDS011;63446;56.272;43.922;2022-10-17T14:02:28;9.98;;;4.03;;
74892;SDS011;63446;56.272;43.922;2022-10-17T14:12:52;8.90;;;4.28;;
74892;SDS011;63446;56.272;43.922;2022-10-17T14:15:21;11.52;;;4.38;;
74892;SDS011;63446;56.272;43.922;2022-10-17T14:17:53;9.85;;;4.43;;
74892;SDS011;63446;56.272;43.922;2022-10-17T14:20:25;11.98;;;5.10;;
74892;SDS011;63446;56.272;43.922;2022-10-17T14:22:53;9.25;;;4.22;;
74892;SDS011;63446;56.272;43.922;2022-10-17T14:28:29;14.15;;;5.03;;
74892;SDS011;63446;56.272;43.922;2022-10-17T14:31:08;17.05;;;6.35;;
74892;SDS011;63446;56.272;43.922;2022-10-17T14:33:58;14.38;;;6.15;;
74892;SDS011;63446;56.272;43.922;2022-10-17T14:36:32;14.30;;;5.65;;
74892;SDS011;63446;56.272;43.922;2022-10-17T14:39:03;12.52;;;5.78;;
74892;SDS011;63446;56.272;43.922;2022-10-17T14:41:33;18.02;;;6.55;;
74892;SDS011;63446;56.272;43.922;2022-10-17T14:44:03;17.63;;;7.07;;
74892;SDS011;63446;56.272;43.922;2022-10-17T14:46:33;18.50;;;7.03;;
74892;SDS011;63446;56.272;43.922;2022-10-17T14:49:07;17.15;;;6.15;;
74892;SDS011;63446;56.272;43.922;2022-10-17T14:52:08;18.30;;;7.72;;
74892;SDS011;63446;56.272;43.922;2022-10-17T14:54:57;14.05;;;5.90;;
74892;SDS011;63446;56.272;43.922;2022-10-17T14:59:51;16.88;;;5.75;;
74892;SDS011;63446;56.272;43.922;2022-10-17T15:02:18;12.32;;;5.00;;
74892;SDS011;63446;56.272;43.922;2022-10-17T15:04:44;12.13;;;4.97;;
74892;SDS011;63446;56.272;43.922;2022-10-17T15:07:12;15.10;;;5.40;;
74892;SDS011;63446;56.272;43.922;2022-10-17T15:09:39;11.15;;;4.93;;
74892;SDS011;63446;56.272;43.922;2022-10-17T15:12:06;10.10;;;4.35;;
74892;SDS011;63446;56.272;43.922;2022-10-17T15:14:38;12.02;;;5.18;;
74892;SDS011;63446;56.272;43.922;2022-10-17T15:17:07;13.40;;;5.23;;
74892;SDS011;63446;56.272;43.922;2022-10-17T15:19:36;14.30;;;5.43;;
74892;SDS011;63446;56.272;43.922;2022-10-17T15:22:02;14.43;;;5.40;;
74892;SDS011;63446;56.272;43.922;2022-10-17T15:24:28;12.90;;;5.20;;
74892;SDS011;63446;56.272;43.922;2022-10-17T15:26:53;10.47;;;5.00;;
74892;SDS011;63446;56.272;43.922;2022-10-17T15:29:20;12.23;;;5.15;;
74892;SDS011;63446;56.272;43.922;2022-10-17T15:31:46;14.30;;;5.30;;
74892;SDS011;63446;56.272;43.922;2022-10-17T15:34:12;11.60;;;5.22;;
74892;SDS011;63446;56.272;43.922;2022-10-17T15:36:38;12.80;;;5.27;;
74892;SDS011;63446;56.272;43.922;2022-10-17T15:39:05;9.40;;;4.68;;
74892;SDS011;63446;56.272;43.922;2022-10-17T15:41:32;9.95;;;5.03;;
74892;SDS011;63446;56.272;43.922;2022-10-17T15:43:58;13.03;;;5.20;;
74892;SDS011;63446;56.272;43.922;2022-10-17T15:46:25;9.35;;;4.88;;
74892;SDS011;63446;56.272;43.922;2022-10-17T15:48:53;13.68;;;5.57;;
74892;SDS011;63446;56.272;43.922;2022-10-17T15:51:20;13.30;;;5.10;;
74892;SDS011;63446;56.272;43.922;2022-10-17T15:53:47;12.27;;;4.50;;
74892;SDS011;63446;56.272;43.922;2022-10-17T15:56:20;10.80;;;4.93;;
74892;SDS011;63446;56.272;43.922;2022-10-17T15:58:49;12.15;;;4.63;;
74892;SDS011;63446;56.272;43.922;2022-10-17T16:01:48;9.45;;;4.45;;
74892;SDS011;63446;56.272;43.922;2022-10-17T16:04:11;10.20;;;5.07;;
74892;SDS011;63446;56.272;43.922;2022-10-17T16:06:39;10.45;;;4.55;;
74892;SDS011;63446;56.272;43.922;2022-10-17T16:09:06;10.70;;;4.65;;
74892;SDS011;63446;56.272;43.922;2022-10-17T16:11:38;9.18;;;4.38;;
74892;SDS011;63446;56.272;43.922;2022-10-17T16:14:07;10.10;;;4.40;;
74892;SDS011;63446;56.272;43.922;2022-10-17T16:16:35;10.68;;;4.63;;
74892;SDS011;63446;56.272;43.922;2022-10-17T16:19:01;10.88;;;4.15;;
74892;SDS011;63446;56.272;43.922;2022-10-17T16:21:28;12.37;;;5.07;;
74892;SDS011;63446;56.272;43.922;2022-10-17T16:23:56;9.32;;;3.90;;
74892;SDS011;63446;56.272;43.922;2022-10-17T16:26:24;12.10;;;4.43;;
74892;SDS011;63446;56.272;43.922;2022-10-17T16:28:49;10.38;;;4.40;;
74892;SDS011;63446;56.272;43.922;2022-10-17T16:31:19;11.10;;;4.83;;
74892;SDS011;63446;56.272;43.922;2022-10-17T16:33:48;10.95;;;4.70;;
74892;SDS011;63446;56.272;43.922;2022-10-17T16:36:14;9.43;;;4.35;;
74892;SDS011;63446;56.272;43.922;2022-10-17T16:38:40;9.33;;;4.53;;
74892;SDS011;63446;56.272;43.922;2022-10-17T16:41:13;12.82;;;5.10;;
74892;SDS011;63446;56.272;43.922;2022-10-17T16:43:41;11.02;;;4.90;;